createdAt,value
2023-02-21T00:02:18.692Z,9.74
2023-02-21T00:05:04.721Z,9.49
2023-02-21T00:07:53.059Z,10.30
2023-02-21T00:10:39.760Z,10.62
2023-02-21T00:13:25.588Z,10.31
2023-02-21T00:16:11.484Z,9.98
2023-02-21T00:18:57.944Z,9.92
2023-02-21T00:21:45.914Z,10.36
2023-02-21T00:24:34.270Z,9.99
2023-02-21T00:27:20.311Z,9.52
2023-02-21T00:30:07.272Z,9.41
2023-02-21T00:32:52.925Z,9.62
2023-02-21T00:35:38.527Z,9.48
2023-02-21T00:38:26.362Z,9.38
2023-02-21T00:41:12.923Z,8.91
2023-02-21T00:43:58.994Z,9.09
2023-02-21T00:46:44.585Z,9.01
2023-02-21T00:49:30.381Z,9.04
2023-02-21T00:52:16.337Z,9.05
2023-02-21T00:55:01.510Z,8.91
2023-02-21T00:57:46.691Z,8.83
2023-02-21T01:00:39.740Z,9.00
2023-02-21T01:03:25.488Z,9.08
2023-02-21T01:06:12.436Z,9.24
2023-02-21T01:09:03.517Z,9.51
2023-02-21T01:11:51.475Z,9.63
2023-02-21T01:14:37.684Z,9.93
2023-02-21T01:17:23.447Z,9.92
2023-02-21T01:20:09.164Z,9.92
2023-02-21T01:22:54.772Z,9.79
2023-02-21T01:25:40.339Z,9.86
2023-02-21T01:28:26.447Z,9.86
2023-02-21T01:31:12.102Z,10.00
2023-02-21T01:33:59.560Z,10.07
2023-02-21T01:36:46.838Z,10.05
2023-02-21T01:39:32.749Z,10.10
2023-02-21T01:42:18.578Z,9.96
2023-02-21T01:45:05.603Z,9.98
2023-02-21T01:47:52.032Z,10.21
2023-02-21T01:50:46.411Z,10.22
2023-02-21T01:53:36.529Z,10.22
2023-02-21T01:56:23.302Z,10.27
2023-02-21T01:59:11.471Z,10.33
2023-02-21T02:02:08.813Z,10.10
2023-02-21T02:04:54.253Z,10.16
2023-02-21T02:07:40.186Z,10.15
2023-02-21T02:10:29.922Z,9.90
2023-02-21T02:13:08.530Z,10.14
2023-02-21T02:15:47.534Z,10.33
2023-02-21T02:18:45.898Z,10.11
2023-02-21T02:21:13.062Z,10.26
2023-02-21T02:24:07.993Z,10.09
2023-02-21T02:26:47.042Z,10.14
2023-02-21T02:29:40.414Z,9.97
2023-02-21T02:32:27.182Z,9.80
2023-02-21T02:35:09.001Z,9.74
2023-02-21T02:38:03.593Z,9.58
2023-02-21T02:40:57.958Z,9.77
2023-02-21T02:43:31.584Z,9.69
2023-02-21T02:46:05.498Z,9.86
2023-02-21T02:48:44.546Z,9.96
2023-02-21T02:51:14.496Z,9.96
2023-02-21T02:53:42.174Z,9.89
2023-02-21T02:56:12.099Z,9.87
2023-02-21T02:58:47.746Z,9.76
2023-02-21T03:01:30.817Z,9.89
2023-02-21T03:04:16.109Z,9.69
2023-02-21T03:07:09.380Z,9.94
2023-02-21T03:09:59.341Z,9.96
2023-02-21T03:12:37.579Z,9.91
2023-02-21T03:15:12.153Z,10.04
2023-02-21T03:17:45.586Z,10.21
2023-02-21T03:20:15.066Z,9.97
2023-02-21T03:22:45.201Z,10.26
2023-02-21T03:25:14.497Z,10.19
2023-02-21T03:27:44.451Z,10.20
2023-02-21T03:30:12.564Z,10.19
2023-02-21T03:32:52.054Z,9.99
2023-02-21T03:35:20.621Z,9.89
2023-02-21T03:37:49.794Z,9.82
2023-02-21T03:40:20.879Z,9.75
2023-02-21T03:42:47.930Z,9.85
2023-02-21T03:45:14.796Z,9.81
2023-02-21T03:47:41.829Z,9.79
2023-02-21T03:50:11.733Z,9.90
2023-02-21T03:52:38.916Z,9.80
2023-02-21T03:55:07.592Z,10.02
2023-02-21T03:57:34.999Z,9.94
2023-02-21T04:00:03.613Z,10.16
2023-02-21T04:02:33.941Z,9.88
2023-02-21T04:05:00.853Z,9.63
2023-02-21T04:07:28.131Z,9.80
2023-02-21T04:09:56.229Z,9.96
2023-02-21T04:12:23.235Z,10.00
2023-02-21T04:14:52.333Z,9.94
2023-02-21T04:17:19.238Z,9.97
2023-02-21T04:19:46.518Z,9.87
2023-02-21T04:22:13.530Z,9.80
2023-02-21T04:24:40.428Z,9.95
2023-02-21T04:27:07.615Z,9.67
2023-02-21T04:29:34.543Z,9.81
2023-02-21T04:32:03.322Z,9.67
2023-02-21T04:34:30.375Z,9.80
2023-02-21T04:36:57.284Z,9.61
2023-02-21T04:39:25.401Z,9.59
2023-02-21T04:41:52.326Z,9.58
2023-02-21T04:44:19.273Z,9.57
2023-02-21T04:46:46.215Z,9.67
2023-02-21T04:49:14.064Z,9.47
2023-02-21T04:51:41.793Z,9.45
2023-02-21T04:54:08.818Z,9.34
2023-02-21T04:56:35.887Z,9.21
2023-02-21T04:59:03.172Z,9.29
2023-02-21T05:01:31.674Z,9.14
2023-02-21T05:04:00.259Z,9.33
2023-02-21T05:06:28.781Z,9.20
2023-02-21T05:08:56.068Z,9.02
2023-02-21T05:11:24.201Z,8.87
2023-02-21T05:13:51.413Z,9.02
2023-02-21T05:16:19.824Z,8.86
2023-02-21T05:18:55.891Z,8.73
2023-02-21T05:21:23.084Z,9.06
2023-02-21T05:23:58.701Z,9.01
2023-02-21T05:26:29.937Z,9.10
2023-02-21T05:28:57.124Z,9.05
2023-02-21T05:31:24.078Z,9.10
2023-02-21T05:33:51.119Z,9.00
2023-02-21T05:36:18.129Z,9.14
2023-02-21T05:38:48.966Z,9.19
2023-02-21T05:41:18.065Z,9.28
2023-02-21T05:43:47.231Z,9.36
2023-02-21T05:46:22.442Z,9.41
2023-02-21T05:48:49.867Z,9.42
2023-02-21T05:51:17.661Z,9.41
2023-02-21T05:53:44.895Z,9.49
2023-02-21T05:56:12.503Z,9.38
2023-02-21T05:58:39.730Z,9.39
2023-02-21T06:01:07.219Z,9.63
2023-02-21T06:03:35.090Z,9.39
2023-02-21T06:06:02.509Z,9.65
2023-02-21T06:08:32.037Z,9.73
2023-02-21T06:10:59.236Z,9.58
2023-02-21T06:13:26.170Z,9.65
2023-02-21T06:15:53.172Z,9.65
2023-02-21T06:18:20.171Z,9.65
2023-02-21T06:20:47.107Z,9.76
2023-02-21T06:23:14.520Z,9.83
2023-02-21T06:25:41.614Z,9.77
2023-02-21T06:28:09.130Z,9.81
2023-02-21T06:30:36.992Z,9.84
2023-02-21T06:33:05.431Z,9.81
2023-02-21T06:35:32.350Z,10.02
2023-02-21T06:38:00.090Z,10.02
2023-02-21T06:40:28.073Z,10.11
2023-02-21T06:42:54.977Z,10.16
2023-02-21T06:45:21.902Z,10.22
2023-02-21T06:47:48.876Z,10.35
2023-02-21T06:50:16.946Z,10.37
2023-02-21T06:52:43.925Z,10.42
2023-02-21T06:55:10.832Z,10.45
2023-02-21T06:57:37.835Z,10.49
2023-02-21T07:00:06.208Z,10.56
2023-02-21T07:02:33.723Z,10.60
2023-02-21T07:05:00.778Z,10.62
2023-02-21T07:07:27.708Z,10.69
2023-02-21T07:09:55.370Z,10.78
2023-02-21T07:12:22.294Z,10.80
2023-02-21T07:14:50.777Z,10.77
2023-02-21T07:17:17.866Z,10.82
2023-02-21T07:19:45.346Z,10.82
2023-02-21T07:22:12.329Z,10.89
2023-02-21T07:24:39.504Z,10.96
2023-02-21T07:27:07.100Z,11.05
2023-02-21T07:29:34.436Z,11.09
2023-02-21T07:32:01.413Z,11.18
2023-02-21T07:34:28.481Z,11.25
2023-02-21T07:36:55.438Z,11.29
2023-02-21T07:39:22.456Z,11.32
2023-02-21T07:41:49.751Z,11.45
2023-02-21T07:44:17.124Z,11.49
2023-02-21T07:46:46.623Z,11.57
2023-02-21T07:49:13.679Z,11.72
2023-02-21T07:51:40.668Z,11.71
2023-02-21T07:54:07.751Z,11.70
2023-02-21T07:56:34.770Z,11.87
2023-02-21T07:59:01.759Z,11.91
2023-02-21T08:01:28.902Z,12.00
2023-02-21T08:03:56.114Z,12.20
2023-02-21T08:06:23.087Z,12.17
2023-02-21T08:08:50.541Z,12.27
2023-02-21T08:11:18.268Z,12.42
2023-02-21T08:13:45.206Z,12.55
2023-02-21T08:16:13.784Z,12.70
2023-02-21T08:18:41.568Z,12.71
2023-02-21T08:21:12.564Z,12.99
2023-02-21T08:23:39.874Z,12.92
2023-02-21T08:26:06.793Z,12.91
2023-02-21T08:28:33.771Z,13.15
2023-02-21T08:31:01.299Z,12.93
2023-02-21T08:33:30.081Z,13.03
2023-02-21T08:35:59.480Z,13.16
2023-02-21T08:38:26.356Z,13.19
2023-02-21T08:40:53.442Z,13.09
2023-02-21T08:43:21.176Z,13.34
2023-02-21T08:45:48.419Z,13.69
2023-02-21T08:48:15.444Z,13.62
2023-02-21T08:50:42.431Z,13.77
2023-02-21T08:53:14.918Z,14.09
2023-02-21T08:55:43.186Z,13.83
2023-02-21T08:58:16.408Z,14.04
2023-02-21T09:00:44.423Z,13.96
2023-02-21T09:03:11.356Z,14.19
2023-02-21T09:05:40.025Z,13.99
2023-02-21T09:08:10.504Z,14.29
2023-02-21T09:10:37.607Z,13.74
2023-02-21T09:13:06.133Z,13.84
2023-02-21T09:15:33.285Z,13.78
2023-02-21T09:18:01.779Z,13.98
2023-02-21T09:20:29.632Z,13.90
2023-02-21T09:22:56.532Z,14.21
2023-02-21T09:25:25.198Z,14.31
2023-02-21T09:27:55.246Z,14.43
2023-02-21T09:30:26.839Z,14.23
2023-02-21T09:32:56.286Z,14.33
2023-02-21T09:35:23.917Z,14.39
2023-02-21T09:37:51.293Z,14.50
2023-02-21T09:40:24.383Z,14.22
2023-02-21T09:42:58.287Z,13.80
2023-02-21T09:45:30.645Z,13.85
2023-02-21T09:48:08.058Z,14.36
2023-02-21T09:50:45.101Z,14.75
2023-02-21T09:53:18.385Z,14.88
2023-02-21T09:55:48.830Z,14.94
2023-02-21T09:58:19.968Z,14.35
2023-02-21T10:00:47.386Z,14.49
2023-02-21T10:03:37.108Z,15.17
2023-02-21T10:06:22.248Z,14.83
2023-02-21T10:09:06.407Z,15.21
2023-02-21T10:11:55.369Z,14.92
2023-02-21T10:14:57.226Z,15.32
2023-02-21T10:17:36.557Z,15.29
2023-02-21T10:20:14.323Z,16.00
2023-02-21T10:22:47.297Z,14.84
2023-02-21T10:25:24.775Z,15.43
2023-02-21T10:27:53.675Z,15.83
2023-02-21T10:30:26.289Z,15.96
2023-02-21T10:32:54.023Z,15.79
2023-02-21T10:35:20.903Z,15.76
2023-02-21T10:37:52.663Z,16.76
2023-02-21T10:40:41.816Z,17.12
2023-02-21T10:43:33.885Z,16.97
2023-02-21T10:46:40.309Z,16.89
2023-02-21T10:49:23.724Z,17.15
2023-02-21T10:52:24.134Z,16.74
2023-02-21T10:55:01.879Z,18.17
2023-02-21T10:57:33.983Z,17.54
2023-02-21T11:00:10.135Z,17.18
2023-02-21T11:02:44.800Z,17.01
2023-02-21T11:05:18.144Z,17.70
2023-02-21T11:08:35.511Z,16.83
2023-02-21T11:11:04.044Z,17.84
2023-02-21T11:13:33.012Z,18.15
2023-02-21T11:16:19.745Z,18.46
2023-02-21T11:18:46.698Z,17.49
2023-02-21T11:21:16.805Z,17.39
2023-02-21T11:24:02.779Z,17.60
2023-02-21T11:26:35.548Z,18.78
2023-02-21T11:29:15.149Z,18.71
2023-02-21T11:31:42.975Z,18.78
2023-02-21T11:34:13.766Z,18.03
2023-02-21T11:36:45.690Z,18.82
2023-02-21T11:39:18.836Z,18.50
2023-02-21T11:42:23.026Z,18.12
2023-02-21T11:45:05.020Z,18.32
2023-02-21T11:47:39.426Z,18.99
2023-02-21T11:50:18.282Z,18.34
2023-02-21T11:53:12.692Z,19.20
2023-02-21T11:55:42.120Z,19.04
2023-02-21T11:58:49.174Z,19.38
2023-02-21T12:01:27.749Z,18.31
2023-02-21T12:04:20.525Z,18.90
2023-02-21T12:06:53.485Z,18.44
2023-02-21T12:09:48.343Z,18.33
2023-02-21T12:12:19.959Z,18.51
2023-02-21T12:14:50.170Z,19.23
2023-02-21T12:17:29.363Z,18.35
2023-02-21T12:20:19.672Z,17.89
2023-02-21T12:22:46.597Z,18.00
2023-02-21T12:25:36.129Z,18.52
2023-02-21T12:28:31.898Z,19.01
2023-02-21T12:31:24.356Z,17.89
2023-02-21T12:34:09.836Z,17.90
2023-02-21T12:36:58.114Z,17.29
2023-02-21T12:39:46.363Z,17.56
2023-02-21T12:42:33.703Z,18.36
2023-02-21T12:45:31.520Z,18.40
2023-02-21T12:48:11.884Z,17.69
2023-02-21T12:50:43.230Z,17.63
2023-02-21T12:53:26.154Z,18.04
2023-02-21T12:56:01.655Z,17.86
2023-02-21T12:58:52.029Z,18.53
2023-02-21T13:01:25.374Z,17.99
2023-02-21T13:04:17.135Z,18.33
2023-02-21T13:07:11.312Z,17.90
2023-02-21T13:09:50.226Z,18.35
2023-02-21T13:12:28.711Z,18.45
2023-02-21T13:15:01.320Z,18.58
2023-02-21T13:17:28.593Z,19.18
2023-02-21T13:20:05.157Z,20.07
2023-02-21T13:23:11.400Z,19.07
2023-02-21T13:26:12.622Z,18.03
2023-02-21T13:28:41.569Z,18.55
2023-02-21T13:31:31.234Z,19.43
2023-02-21T13:34:01.823Z,19.37
2023-02-21T13:36:39.912Z,17.86
2023-02-21T13:39:10.087Z,18.30
2023-02-21T13:41:43.355Z,19.01
2023-02-21T13:44:23.632Z,19.14
2023-02-21T13:46:50.784Z,19.37
2023-02-21T13:49:43.027Z,18.90
2023-02-21T13:52:25.012Z,18.22
2023-02-21T13:55:21.355Z,18.43
2023-02-21T13:58:09.381Z,17.81
2023-02-21T14:00:36.780Z,17.43
2023-02-21T14:03:23.936Z,18.12
2023-02-21T14:05:51.003Z,18.45
2023-02-21T14:08:40.974Z,18.46
2023-02-21T14:11:10.374Z,18.09
2023-02-21T14:13:58.288Z,17.78
2023-02-21T14:16:31.904Z,17.85
2023-02-21T14:19:10.570Z,17.83
2023-02-21T14:21:40.599Z,17.44
2023-02-21T14:24:10.541Z,17.62
2023-02-21T14:26:51.530Z,17.08
2023-02-21T14:29:40.772Z,16.47
2023-02-21T14:32:08.064Z,17.39
2023-02-21T14:34:54.552Z,17.64
2023-02-21T14:37:37.965Z,17.10
2023-02-21T14:40:10.836Z,16.81
2023-02-21T14:43:04.018Z,16.27
2023-02-21T14:45:44.707Z,15.94
2023-02-21T14:48:35.781Z,15.80
2023-02-21T14:51:27.129Z,15.34
2023-02-21T14:53:54.364Z,15.42
2023-02-21T14:56:40.286Z,15.18
2023-02-21T14:59:22.724Z,15.46
2023-02-21T15:02:17.349Z,15.20
2023-02-21T15:05:00.084Z,15.23
2023-02-21T15:07:48.609Z,15.52
2023-02-21T15:10:27.646Z,15.41
2023-02-21T15:13:05.795Z,15.42
2023-02-21T15:15:43.802Z,14.91
2023-02-21T15:18:22.842Z,14.75
2023-02-21T15:21:07.155Z,14.69
2023-02-21T15:23:35.066Z,14.65
2023-02-21T15:26:19.665Z,14.63
2023-02-21T15:28:46.769Z,14.48
2023-02-21T15:31:14.764Z,14.78
2023-02-21T15:33:43.896Z,14.58
2023-02-21T15:36:21.497Z,14.49
2023-02-21T15:39:01.217Z,14.52
2023-02-21T15:41:35.785Z,14.37
2023-02-21T15:44:02.695Z,14.33
2023-02-21T15:46:41.248Z,14.44
2023-02-21T15:49:18.057Z,14.36
2023-02-21T15:51:45.765Z,14.55
2023-02-21T15:54:18.811Z,14.38
2023-02-21T15:56:46.103Z,14.07
2023-02-21T15:59:24.924Z,13.94
2023-02-21T16:02:14.911Z,13.77
2023-02-21T16:04:47.346Z,13.67
2023-02-21T16:07:19.249Z,13.58
2023-02-21T16:10:01.109Z,13.51
2023-02-21T16:12:35.878Z,13.34
2023-02-21T16:15:20.355Z,13.37
2023-02-21T16:17:53.972Z,13.26
2023-02-21T16:20:27.216Z,13.22
2023-02-21T16:23:31.907Z,13.15
2023-02-21T16:26:13.345Z,13.07
2023-02-21T16:28:41.717Z,13.08
2023-02-21T16:31:25.642Z,13.10
2023-02-21T16:33:57.618Z,13.13
2023-02-21T16:36:30.211Z,13.17
2023-02-21T16:38:58.838Z,13.09
2023-02-21T16:41:29.409Z,13.14
2023-02-21T16:43:57.004Z,13.09
2023-02-21T16:46:29.808Z,13.05
2023-02-21T16:49:00.495Z,13.05
2023-02-21T16:51:33.863Z,12.96
2023-02-21T16:54:02.165Z,13.06
2023-02-21T16:56:30.399Z,13.13
2023-02-21T16:58:58.276Z,13.10
2023-02-21T17:01:29.663Z,13.14
2023-02-21T17:03:58.205Z,13.14
2023-02-21T17:06:27.625Z,13.15
2023-02-21T17:09:01.592Z,13.11
2023-02-21T17:11:29.455Z,13.16
2023-02-21T17:13:58.907Z,13.15
2023-02-21T17:16:26.232Z,13.16
2023-02-21T17:18:55.078Z,13.16
2023-02-21T17:21:22.748Z,13.16
2023-02-21T17:23:50.453Z,13.17
2023-02-21T17:26:18.798Z,13.19
2023-02-21T17:28:46.756Z,13.10
2023-02-21T17:31:19.290Z,13.10
2023-02-21T17:33:47.374Z,13.16
2023-02-21T17:36:20.706Z,13.09
2023-02-21T17:38:48.489Z,13.12
2023-02-21T17:41:17.329Z,13.11
2023-02-21T17:43:48.373Z,13.14
2023-02-21T17:46:18.481Z,13.15
2023-02-21T17:48:48.199Z,13.15
2023-02-21T17:51:24.393Z,13.06
2023-02-21T17:53:53.964Z,13.09
2023-02-21T17:56:25.040Z,13.12
2023-02-21T17:58:55.405Z,13.08
2023-02-21T18:01:23.799Z,13.04
2023-02-21T18:03:54.228Z,13.02
2023-02-21T18:06:23.122Z,13.02
2023-02-21T18:08:51.555Z,13.00
2023-02-21T18:11:20.683Z,12.98
2023-02-21T18:13:49.287Z,12.94
2023-02-21T18:16:17.289Z,12.87
2023-02-21T18:18:46.007Z,12.82
2023-02-21T18:21:16.407Z,12.83
2023-02-21T18:23:54.251Z,12.74
2023-02-21T18:26:23.555Z,12.76
2023-02-21T18:28:51.575Z,12.72
2023-02-21T18:31:20.590Z,12.61
2023-02-21T18:33:51.520Z,12.68
2023-02-21T18:36:20.163Z,12.63
2023-02-21T18:38:50.010Z,12.58
2023-02-21T18:41:23.648Z,12.55
2023-02-21T18:43:52.412Z,12.51
2023-02-21T18:46:22.429Z,12.47
2023-02-21T18:48:52.998Z,12.43
2023-02-21T18:51:21.876Z,12.34
2023-02-21T18:53:50.915Z,12.33
2023-02-21T18:56:20.320Z,12.35
2023-02-21T18:58:51.061Z,12.28
2023-02-21T19:01:23.118Z,12.29
2023-02-21T19:03:53.196Z,12.28
2023-02-21T19:06:23.248Z,12.24
2023-02-21T19:08:54.463Z,12.19
2023-02-21T19:11:22.946Z,12.16
2023-02-21T19:13:52.311Z,12.08
2023-02-21T19:16:20.822Z,11.98
2023-02-21T19:18:51.985Z,11.90
2023-02-21T19:21:20.861Z,11.89
2023-02-21T19:23:49.264Z,11.85
2023-02-21T19:26:18.374Z,11.77
2023-02-21T19:28:51.674Z,11.71
2023-02-21T19:31:21.046Z,11.65
2023-02-21T19:34:05.581Z,11.56
2023-02-21T19:36:34.936Z,11.44
2023-02-21T19:39:03.530Z,11.37
2023-02-21T19:41:33.084Z,11.32
2023-02-21T19:44:17.695Z,11.28
2023-02-21T19:46:57.923Z,11.29
2023-02-21T19:49:26.958Z,11.15
2023-02-21T19:52:06.335Z,11.24
2023-02-21T19:54:50.166Z,11.21
2023-02-21T19:57:19.465Z,11.14
2023-02-21T19:59:52.000Z,11.13
2023-02-21T20:02:21.953Z,11.10
2023-02-21T20:04:51.390Z,11.02
2023-02-21T20:07:24.456Z,10.92
2023-02-21T20:09:53.695Z,10.93
2023-02-21T20:12:23.881Z,10.85
2023-02-21T20:14:55.621Z,10.86
2023-02-21T20:17:25.911Z,10.85
2023-02-21T20:19:55.533Z,10.95
2023-02-21T20:22:23.717Z,10.94
2023-02-21T20:24:53.513Z,10.85
2023-02-21T20:27:22.090Z,10.78
2023-02-21T20:29:51.421Z,10.72
2023-02-21T20:32:24.795Z,10.68
2023-02-21T20:34:56.132Z,10.61
2023-02-21T20:37:25.360Z,10.59
2023-02-21T20:39:54.528Z,10.53
2023-02-21T20:42:23.246Z,10.52
2023-02-21T20:44:53.010Z,10.57
2023-02-21T20:47:21.556Z,10.54
2023-02-21T20:49:50.253Z,10.52
2023-02-21T20:52:19.590Z,10.43
2023-02-21T20:54:47.342Z,10.46
2023-02-21T20:57:15.820Z,10.47
2023-02-21T20:59:46.742Z,10.42
2023-02-21T21:02:14.812Z,10.46
2023-02-21T21:04:46.411Z,10.36
2023-02-21T21:07:20.466Z,10.44
2023-02-21T21:09:50.990Z,10.44
2023-02-21T21:12:23.025Z,10.41
2023-02-21T21:14:55.947Z,10.40
2023-02-21T21:17:25.330Z,10.45
2023-02-21T21:19:57.277Z,10.29
2023-02-21T21:22:28.570Z,10.33
2023-02-21T21:24:57.112Z,10.31
2023-02-21T21:27:26.673Z,10.28
2023-02-21T21:29:58.261Z,10.20
2023-02-21T21:32:28.550Z,10.13
2023-02-21T21:35:07.226Z,10.06
2023-02-21T21:37:37.198Z,10.02
2023-02-21T21:40:23.009Z,9.90
2023-02-21T21:42:55.412Z,9.85
2023-02-21T21:45:30.879Z,9.76
2023-02-21T21:48:00.117Z,9.67
2023-02-21T21:50:28.708Z,9.71
2023-02-21T21:52:58.546Z,9.79
2023-02-21T21:55:30.681Z,9.76
2023-02-21T21:57:58.988Z,9.83
2023-02-21T22:00:29.591Z,9.83
2023-02-21T22:02:59.519Z,9.92
2023-02-21T22:05:30.539Z,9.89
2023-02-21T22:07:59.220Z,9.91
2023-02-21T22:10:28.396Z,9.93
2023-02-21T22:12:59.874Z,9.89
2023-02-21T22:15:28.855Z,9.92
2023-02-21T22:17:56.278Z,9.89
2023-02-21T22:20:31.114Z,9.99
2023-02-21T22:22:58.784Z,9.91
2023-02-21T22:25:27.882Z,9.87
2023-02-21T22:27:54.853Z,9.89
2023-02-21T22:30:23.705Z,9.88
2023-02-21T22:32:50.917Z,9.94
2023-02-21T22:35:20.408Z,9.99
2023-02-21T22:37:53.186Z,9.95
2023-02-21T22:40:25.495Z,9.99
2023-02-21T22:43:01.290Z,9.90
2023-02-21T22:45:33.274Z,9.94
2023-02-21T22:48:02.738Z,9.89
2023-02-21T22:50:37.500Z,9.95
2023-02-21T22:53:11.488Z,9.90
2023-02-21T22:55:38.625Z,9.93
2023-02-21T22:58:08.122Z,9.92
2023-02-21T23:00:36.129Z,9.82
2023-02-21T23:03:13.123Z,9.69
2023-02-21T23:05:45.378Z,9.57
2023-02-21T23:08:15.228Z,9.46
2023-02-21T23:10:42.780Z,9.33
2023-02-21T23:13:19.426Z,9.26
2023-02-21T23:15:47.215Z,9.14
2023-02-21T23:18:23.333Z,9.04
2023-02-21T23:20:54.273Z,8.98
2023-02-21T23:23:27.508Z,8.96
2023-02-21T23:25:58.946Z,8.83
2023-02-21T23:28:28.916Z,8.77
2023-02-21T23:30:58.127Z,8.75
2023-02-21T23:33:28.220Z,8.71
2023-02-21T23:35:56.970Z,8.71
2023-02-21T23:38:28.145Z,8.68
2023-02-21T23:40:59.176Z,8.61
2023-02-21T23:43:30.876Z,8.54
2023-02-21T23:45:59.096Z,8.50
2023-02-21T23:48:26.513Z,8.41
2023-02-21T23:50:58.156Z,8.41
2023-02-21T23:53:27.757Z,8.22
2023-02-21T23:56:00.665Z,8.31
2023-02-21T23:58:31.716Z,8.27
